sensor_id;sensor_type;location;lat;lon;timestamp;pressure;altitude;pressure_sealevel;temperature;humidity
35989;BME280;22064;42.672;23.282;2023-03-23T00:00:59;94624.03;;;4.70;100.00
35989;BME280;22064;42.672;23.282;2023-03-23T00:03:27;94633.09;;;4.85;100.00
35989;BME280;22064;42.672;23.282;2023-03-23T00:05:55;94623.22;;;4.76;100.00
35989;BME280;22064;42.672;23.282;2023-03-23T00:08:25;94614.09;;;4.73;100.00
35989;BME280;22064;42.672;23.282;2023-03-23T00:10:52;94619.44;;;4.78;100.00
35989;BME280;22064;42.672;23.282;2023-03-23T00:13:25;94624.81;;;4.77;100.00
35989;BME280;22064;42.672;23.282;2023-03-23T00:15:52;94617.50;;;4.74;100.00
35989;BME280;22064;42.672;23.282;2023-03-23T00:18:19;94618.28;;;4.74;100.00
35989;BME280;22064;42.672;23.282;2023-03-23T00:20:53;94621.78;;;4.86;100.00
35989;BME280;22064;42.672;23.282;2023-03-23T00:23:22;94622.81;;;4.79;100.00
35989;BME280;22064;42.672;23.282;2023-03-23T00:25:51;94634.88;;;4.85;100.00
35989;BME280;22064;42.672;23.282;2023-03-23T00:28:20;94620.19;;;4.85;100.00
35989;BME280;22064;42.672;23.282;2023-03-23T00:30:57;94629.75;;;4.78;100.00
35989;BME280;22064;42.672;23.282;2023-03-23T00:33:25;94628.72;;;4.93;100.00
35989;BME280;22064;42.672;23.282;2023-03-23T00:35:53;94637.81;;;4.95;100.00
35989;BME280;22064;42.672;23.282;2023-03-23T00:38:21;94637.56;;;5.03;100.00
35989;BME280;22064;42.672;23.282;2023-03-23T00:40:48;94642.88;;;5.15;100.00
35989;BME280;22064;42.672;23.282;2023-03-23T00:43:15;94639.66;;;5.20;100.00
35989;BME280;22064;42.672;23.282;2023-03-23T00:45:43;94634.31;;;5.21;100.00
35989;BME280;22064;42.672;23.282;2023-03-23T00:48:20;94648.91;;;5.34;100.00
35989;BME280;22064;42.672;23.282;2023-03-23T00:50:46;94645.31;;;5.35;100.00
35989;BME280;22064;42.672;23.282;2023-03-23T00:53:12;94643.28;;;5.44;100.00
35989;BME280;22064;42.672;23.282;2023-03-23T00:55:40;94650.00;;;5.51;100.00
35989;BME280;22064;42.672;23.282;2023-03-23T00:58:07;94652.94;;;5.55;100.00
35989;BME280;22064;42.672;23.282;2023-03-23T01:00:32;94650.19;;;5.50;100.00
35989;BME280;22064;42.672;23.282;2023-03-23T01:02:58;94650.97;;;5.50;100.00
35989;BME280;22064;42.672;23.282;2023-03-23T01:05:24;94639.13;;;5.43;100.00
35989;BME280;22064;42.672;23.282;2023-03-23T01:07:50;94656.09;;;5.57;100.00
35989;BME280;22064;42.672;23.282;2023-03-23T01:10:16;94654.53;;;5.56;100.00
35989;BME280;22064;42.672;23.282;2023-03-23T01:12:44;94654.56;;;5.49;100.00
35989;BME280;22064;42.672;23.282;2023-03-23T01:15:16;94650.28;;;5.37;100.00
35989;BME280;22064;42.672;23.282;2023-03-23T01:17:43;94651.44;;;5.41;100.00
35989;BME280;22064;42.672;23.282;2023-03-23T01:20:14;94642.75;;;5.35;100.00
35989;BME280;22064;42.672;23.282;2023-03-23T01:22:42;94653.84;;;5.42;100.00
35989;BME280;22064;42.672;23.282;2023-03-23T01:25:09;94642.50;;;5.43;100.00
35989;BME280;22064;42.672;23.282;2023-03-23T01:27:37;94652.59;;;5.51;100.00
35989;BME280;22064;42.672;23.282;2023-03-23T01:30:05;94643.53;;;5.36;100.00
35989;BME280;22064;42.672;23.282;2023-03-23T01:32:31;94651.50;;;5.34;100.00
35989;BME280;22064;42.672;23.282;2023-03-23T01:34:57;94636.25;;;5.26;100.00
35989;BME280;22064;42.672;23.282;2023-03-23T01:37:23;94648.28;;;5.39;100.00
35989;BME280;22064;42.672;23.282;2023-03-23T01:39:55;94640.09;;;5.48;100.00
35989;BME280;22064;42.672;23.282;2023-03-23T01:42:29;94638.00;;;5.32;100.00
35989;BME280;22064;42.672;23.282;2023-03-23T01:45:32;94641.78;;;5.29;100.00
35989;BME280;22064;42.672;23.282;2023-03-23T01:48:04;94634.72;;;5.18;100.00
35989;BME280;22064;42.672;23.282;2023-03-23T01:50:38;94628.28;;;4.96;100.00
35989;BME280;22064;42.672;23.282;2023-03-23T01:53:08;94631.28;;;4.93;100.00
35989;BME280;22064;42.672;23.282;2023-03-23T01:55:38;94632.22;;;5.05;100.00
35989;BME280;22064;42.672;23.282;2023-03-23T01:58:06;94629.16;;;4.83;100.00
35989;BME280;22064;42.672;23.282;2023-03-23T02:00:33;94623.47;;;4.68;100.00
35989;BME280;22064;42.672;23.282;2023-03-23T02:03:01;94628.75;;;4.79;100.00
35989;BME280;22064;42.672;23.282;2023-03-23T02:05:34;94633.50;;;4.89;100.00
35989;BME280;22064;42.672;23.282;2023-03-23T02:08:10;94630.34;;;4.80;100.00
35989;BME280;22064;42.672;23.282;2023-03-23T02:10:38;94628.75;;;4.86;100.00
35989;BME280;22064;42.672;23.282;2023-03-23T02:13:07;94618.84;;;4.83;100.00
35989;BME280;22064;42.672;23.282;2023-03-23T02:18:26;94626.44;;;4.71;100.00
35989;BME280;22064;42.672;23.282;2023-03-23T02:24:08;94634.75;;;4.67;100.00
35989;BME280;22064;42.672;23.282;2023-03-23T02:29:30;94635.84;;;4.91;100.00
35989;BME280;22064;42.672;23.282;2023-03-23T02:35:08;94625.19;;;4.80;100.00
35989;BME280;22064;42.672;23.282;2023-03-23T02:37:39;94630.69;;;4.91;100.00
35989;BME280;22064;42.672;23.282;2023-03-23T02:40:15;94624.50;;;4.98;100.00
35989;BME280;22064;42.672;23.282;2023-03-23T02:42:45;94627.47;;;5.02;100.00
35989;BME280;22064;42.672;23.282;2023-03-23T02:45:14;94623.06;;;5.09;100.00
35989;BME280;22064;42.672;23.282;2023-03-23T02:47:41;94629.56;;;5.18;100.00
35989;BME280;22064;42.672;23.282;2023-03-23T02:50:11;94627.66;;;5.00;100.00
35989;BME280;22064;42.672;23.282;2023-03-23T02:52:40;94634.94;;;5.10;100.00
35989;BME280;22064;42.672;23.282;2023-03-23T02:55:08;94636.22;;;4.94;100.00
35989;BME280;22064;42.672;23.282;2023-03-23T02:57:37;94644.56;;;4.96;100.00
35989;BME280;22064;42.672;23.282;2023-03-23T03:00:07;94641.66;;;4.79;100.00
35989;BME280;22064;42.672;23.282;2023-03-23T03:02:38;94641.97;;;4.58;100.00
35989;BME280;22064;42.672;23.282;2023-03-23T03:07:49;94655.03;;;4.56;100.00
35989;BME280;22064;42.672;23.282;2023-03-23T03:10:35;94665.56;;;4.61;100.00
35989;BME280;22064;42.672;23.282;2023-03-23T03:15:44;94672.09;;;4.57;100.00
35989;BME280;22064;42.672;23.282;2023-03-23T03:18:19;94672.91;;;4.58;100.00
35989;BME280;22064;42.672;23.282;2023-03-23T03:20:50;94677.41;;;4.69;100.00
35989;BME280;22064;42.672;23.282;2023-03-23T03:23:24;94672.06;;;4.71;100.00
35989;BME280;22064;42.672;23.282;2023-03-23T03:25:54;94665.75;;;4.60;100.00
35989;BME280;22064;42.672;23.282;2023-03-23T03:28:32;94659.84;;;4.46;100.00
35989;BME280;22064;42.672;23.282;2023-03-23T03:31:01;94669.94;;;4.48;100.00
35989;BME280;22064;42.672;23.282;2023-03-23T03:33:30;94680.63;;;4.65;100.00
35989;BME280;22064;42.672;23.282;2023-03-23T03:36:01;94677.63;;;4.68;100.00
35989;BME280;22064;42.672;23.282;2023-03-23T03:38:27;94680.19;;;4.74;100.00
35989;BME280;22064;42.672;23.282;2023-03-23T03:40:54;94686.31;;;4.80;100.00
35989;BME280;22064;42.672;23.282;2023-03-23T03:43:23;94684.34;;;4.75;100.00
35989;BME280;22064;42.672;23.282;2023-03-23T03:45:49;94682.94;;;4.73;100.00
35989;BME280;22064;42.672;23.282;2023-03-23T03:48:15;94677.22;;;4.64;100.00
35989;BME280;22064;42.672;23.282;2023-03-23T03:50:41;94684.16;;;4.70;100.00
35989;BME280;22064;42.672;23.282;2023-03-23T03:53:07;94687.94;;;4.61;100.00
35989;BME280;22064;42.672;23.282;2023-03-23T03:55:33;94678.44;;;4.61;100.00
35989;BME280;22064;42.672;23.282;2023-03-23T03:58:07;94678.19;;;4.70;100.00
35989;BME280;22064;42.672;23.282;2023-03-23T04:01:00;94657.94;;;4.73;100.00
35989;BME280;22064;42.672;23.282;2023-03-23T04:03:31;94670.63;;;4.81;100.00
35989;BME280;22064;42.672;23.282;2023-03-23T04:06:05;94675.38;;;4.84;100.00
35989;BME280;22064;42.672;23.282;2023-03-23T04:08:33;94681.53;;;4.83;100.00
35989;BME280;22064;42.672;23.282;2023-03-23T04:10:59;94657.41;;;4.65;100.00
35989;BME280;22064;42.672;23.282;2023-03-23T04:13:27;94663.94;;;4.74;100.00
35989;BME280;22064;42.672;23.282;2023-03-23T04:16:12;94666.88;;;4.77;100.00
35989;BME280;22064;42.672;23.282;2023-03-23T04:18:38;94675.19;;;4.79;100.00
35989;BME280;22064;42.672;23.282;2023-03-23T04:21:05;94659.97;;;4.71;100.00
35989;BME280;22064;42.672;23.282;2023-03-23T04:23:34;94633.41;;;4.57;100.00
35989;BME280;22064;42.672;23.282;2023-03-23T04:26:03;94676.28;;;4.58;100.00
35989;BME280;22064;42.672;23.282;2023-03-23T04:28:40;94675.91;;;4.42;100.00
35989;BME280;22064;42.672;23.282;2023-03-23T04:31:41;94672.53;;;4.48;100.00
35989;BME280;22064;42.672;23.282;2023-03-23T04:34:30;94677.09;;;4.52;100.00
35989;BME280;22064;42.672;23.282;2023-03-23T04:36:59;94669.78;;;4.29;100.00
35989;BME280;22064;42.672;23.282;2023-03-23T04:39:28;94679.72;;;4.19;100.00
35989;BME280;22064;42.672;23.282;2023-03-23T04:41:57;94667.06;;;3.98;100.00
35989;BME280;22064;42.672;23.282;2023-03-23T04:44:45;94672.41;;;3.76;100.00
35989;BME280;22064;42.672;23.282;2023-03-23T04:47:24;94678.16;;;3.85;100.00
35989;BME280;22064;42.672;23.282;2023-03-23T04:49:58;94679.56;;;3.74;100.00
35989;BME280;22064;42.672;23.282;2023-03-23T04:52:30;94679.94;;;3.64;100.00
35989;BME280;22064;42.672;23.282;2023-03-23T04:54:58;94689.66;;;3.62;100.00
35989;BME280;22064;42.672;23.282;2023-03-23T04:57:26;94699.34;;;3.60;100.00
35989;BME280;22064;42.672;23.282;2023-03-23T05:00:12;94696.59;;;3.55;100.00
35989;BME280;22064;42.672;23.282;2023-03-23T05:02:46;94698.97;;;3.57;100.00
35989;BME280;22064;42.672;23.282;2023-03-23T05:05:22;94702.75;;;3.74;100.00
35989;BME280;22064;42.672;23.282;2023-03-23T05:07:50;94700.53;;;3.64;100.00
35989;BME280;22064;42.672;23.282;2023-03-23T05:10:19;94701.16;;;3.73;100.00
35989;BME280;22064;42.672;23.282;2023-03-23T05:12:46;94709.25;;;3.77;100.00
35989;BME280;22064;42.672;23.282;2023-03-23T05:15:14;94705.13;;;3.76;100.00
35989;BME280;22064;42.672;23.282;2023-03-23T05:17:43;94711.47;;;3.86;100.00
35989;BME280;22064;42.672;23.282;2023-03-23T05:20:16;94708.91;;;3.93;100.00
35989;BME280;22064;42.672;23.282;2023-03-23T05:22:52;94710.63;;;4.39;100.00
35989;BME280;22064;42.672;23.282;2023-03-23T05:25:24;94722.13;;;4.30;100.00
35989;BME280;22064;42.672;23.282;2023-03-23T05:27:58;94715.78;;;4.26;100.00
35989;BME280;22064;42.672;23.282;2023-03-23T05:30:46;94717.00;;;4.10;100.00
35989;BME280;22064;42.672;23.282;2023-03-23T05:33:14;94711.84;;;4.10;100.00
35989;BME280;22064;42.672;23.282;2023-03-23T05:36:13;94714.81;;;4.07;100.00
35989;BME280;22064;42.672;23.282;2023-03-23T05:39:05;94721.97;;;4.11;100.00
35989;BME280;22064;42.672;23.282;2023-03-23T05:41:54;94728.91;;;4.18;100.00
35989;BME280;22064;42.672;23.282;2023-03-23T05:44:23;94735.41;;;4.20;100.00
35989;BME280;22064;42.672;23.282;2023-03-23T05:46:52;94739.00;;;4.19;100.00
35989;BME280;22064;42.672;23.282;2023-03-23T05:49:18;94728.31;;;4.09;100.00
35989;BME280;22064;42.672;23.282;2023-03-23T05:51:46;94733.66;;;4.27;100.00
35989;BME280;22064;42.672;23.282;2023-03-23T05:54:13;94748.50;;;4.25;100.00
35989;BME280;22064;42.672;23.282;2023-03-23T05:56:42;94728.50;;;4.14;100.00
35989;BME280;22064;42.672;23.282;2023-03-23T05:59:21;94747.91;;;4.30;100.00
35989;BME280;22064;42.672;23.282;2023-03-23T06:01:52;94745.53;;;4.28;100.00
35989;BME280;22064;42.672;23.282;2023-03-23T06:04:20;94747.50;;;4.33;100.00
35989;BME280;22064;42.672;23.282;2023-03-23T06:07:09;94747.31;;;4.34;100.00
35989;BME280;22064;42.672;23.282;2023-03-23T06:09:43;94727.66;;;4.47;100.00
35989;BME280;22064;42.672;23.282;2023-03-23T06:12:30;94747.47;;;4.59;100.00
35989;BME280;22064;42.672;23.282;2023-03-23T06:15:15;94747.06;;;4.62;100.00
35989;BME280;22064;42.672;23.282;2023-03-23T06:18:01;94747.09;;;4.56;100.00
35989;BME280;22064;42.672;23.282;2023-03-23T06:20:38;94746.66;;;4.72;100.00
35989;BME280;22064;42.672;23.282;2023-03-23T06:23:19;94743.88;;;4.80;100.00
35989;BME280;22064;42.672;23.282;2023-03-23T06:25:46;94728.00;;;4.77;100.00
35989;BME280;22064;42.672;23.282;2023-03-23T06:28:12;94746.94;;;5.09;100.00
35989;BME280;22064;42.672;23.282;2023-03-23T06:30:42;94748.56;;;5.48;100.00
35989;BME280;22064;42.672;23.282;2023-03-23T06:33:09;94743.59;;;5.78;100.00
35989;BME280;22064;42.672;23.282;2023-03-23T06:36:07;94747.84;;;5.98;100.00
35989;BME280;22064;42.672;23.282;2023-03-23T06:38:51;94733.59;;;6.20;100.00
35989;BME280;22064;42.672;23.282;2023-03-23T06:41:23;94754.31;;;6.39;100.00
35989;BME280;22064;42.672;23.282;2023-03-23T06:43:51;94755.56;;;6.55;100.00
35989;BME280;22064;42.672;23.282;2023-03-23T06:46:22;94752.63;;;6.51;100.00
35989;BME280;22064;42.672;23.282;2023-03-23T06:48:51;94755.84;;;6.65;100.00
35989;BME280;22064;42.672;23.282;2023-03-23T06:51:23;94760.59;;;6.68;100.00
35989;BME280;22064;42.672;23.282;2023-03-23T06:53:52;94753.78;;;6.74;100.00
35989;BME280;22064;42.672;23.282;2023-03-23T06:56:18;94756.31;;;6.99;100.00
35989;BME280;22064;42.672;23.282;2023-03-23T06:58:45;94760.63;;;7.05;100.00
35989;BME280;22064;42.672;23.282;2023-03-23T07:01:13;94757.88;;;7.18;100.00
35989;BME280;22064;42.672;23.282;2023-03-23T07:03:46;94758.09;;;7.16;100.00
35989;BME280;22064;42.672;23.282;2023-03-23T07:06:16;94763.38;;;7.40;100.00
35989;BME280;22064;42.672;23.282;2023-03-23T07:08:48;94765.25;;;7.51;100.00
35989;BME280;22064;42.672;23.282;2023-03-23T07:11:18;94763.94;;;7.60;100.00
35989;BME280;22064;42.672;23.282;2023-03-23T07:13:44;94743.53;;;7.64;100.00
35989;BME280;22064;42.672;23.282;2023-03-23T07:16:12;94761.06;;;7.80;100.00
35989;BME280;22064;42.672;23.282;2023-03-23T07:18:38;94764.28;;;8.06;100.00
35989;BME280;22064;42.672;23.282;2023-03-23T07:21:05;94756.66;;;8.23;100.00
35989;BME280;22064;42.672;23.282;2023-03-23T07:23:31;94758.13;;;8.30;100.00
35989;BME280;22064;42.672;23.282;2023-03-23T07:26:03;94759.94;;;8.30;100.00
35989;BME280;22064;42.672;23.282;2023-03-23T07:28:39;94766.28;;;8.58;100.00
35989;BME280;22064;42.672;23.282;2023-03-23T07:31:41;94758.28;;;8.47;100.00
35989;BME280;22064;42.672;23.282;2023-03-23T07:34:08;94764.94;;;8.78;100.00
35989;BME280;22064;42.672;23.282;2023-03-23T07:37:10;94763.34;;;8.89;100.00
35989;BME280;22064;42.672;23.282;2023-03-23T07:39:39;94769.19;;;8.96;100.00
35989;BME280;22064;42.672;23.282;2023-03-23T07:42:05;94758.53;;;9.21;100.00
35989;BME280;22064;42.672;23.282;2023-03-23T07:44:48;94773.41;;;9.38;100.00
35989;BME280;22064;42.672;23.282;2023-03-23T07:47:14;94762.88;;;9.44;100.00
35989;BME280;22064;42.672;23.282;2023-03-23T07:49:41;94774.50;;;9.54;100.00
35989;BME280;22064;42.672;23.282;2023-03-23T07:52:20;94777.97;;;9.59;100.00
35989;BME280;22064;42.672;23.282;2023-03-23T07:54:46;94780.97;;;9.68;100.00
35989;BME280;22064;42.672;23.282;2023-03-23T07:57:35;94775.84;;;9.85;100.00
35989;BME280;22064;42.672;23.282;2023-03-23T08:00:03;94784.50;;;9.90;100.00
35989;BME280;22064;42.672;23.282;2023-03-23T08:02:41;94781.81;;;9.85;100.00
35989;BME280;22064;42.672;23.282;2023-03-23T08:05:26;94782.59;;;9.86;100.00
35989;BME280;22064;42.672;23.282;2023-03-23T08:08:05;94784.19;;;9.87;100.00
35989;BME280;22064;42.672;23.282;2023-03-23T08:10:51;94784.13;;;10.15;100.00
35989;BME280;22064;42.672;23.282;2023-03-23T08:13:43;94790.19;;;10.33;100.00
35989;BME280;22064;42.672;23.282;2023-03-23T08:16:28;94785.69;;;10.45;100.00
35989;BME280;22064;42.672;23.282;2023-03-23T08:19:06;94782.94;;;10.52;100.00
35989;BME280;22064;42.672;23.282;2023-03-23T08:21:46;94784.84;;;10.56;100.00
35989;BME280;22064;42.672;23.282;2023-03-23T08:24:39;94790.59;;;10.75;100.00
35989;BME280;22064;42.672;23.282;2023-03-23T08:27:37;94784.56;;;10.92;100.00
35989;BME280;22064;42.672;23.282;2023-03-23T08:30:33;94776.75;;;10.92;100.00
35989;BME280;22064;42.672;23.282;2023-03-23T08:33:21;94780.69;;;10.94;100.00
35989;BME280;22064;42.672;23.282;2023-03-23T08:36:13;94781.38;;;11.06;100.00
35989;BME280;22064;42.672;23.282;2023-03-23T08:38:53;94777.66;;;11.24;100.00
35989;BME280;22064;42.672;23.282;2023-03-23T08:41:39;94759.56;;;11.35;100.00
35989;BME280;22064;42.672;23.282;2023-03-23T08:44:19;94778.66;;;11.62;100.00
35989;BME280;22064;42.672;23.282;2023-03-23T08:47:14;94787.16;;;11.79;100.00
35989;BME280;22064;42.672;23.282;2023-03-23T08:50:05;94787.38;;;11.73;100.00
35989;BME280;22064;42.672;23.282;2023-03-23T08:52:50;94785.75;;;11.45;100.00
35989;BME280;22064;42.672;23.282;2023-03-23T08:55:32;94786.72;;;11.39;100.00
35989;BME280;22064;42.672;23.282;2023-03-23T08:58:12;94782.66;;;11.26;100.00
35989;BME280;22064;42.672;23.282;2023-03-23T09:00:57;94776.69;;;11.30;100.00
35989;BME280;22064;42.672;23.282;2023-03-23T09:03:38;94779.50;;;11.46;100.00
35989;BME280;22064;42.672;23.282;2023-03-23T09:06:25;94773.38;;;11.57;100.00
35989;BME280;22064;42.672;23.282;2023-03-23T09:08:53;94778.84;;;11.83;100.00
35989;BME280;22064;42.672;23.282;2023-03-23T09:11:18;94782.06;;;11.90;100.00
35989;BME280;22064;42.672;23.282;2023-03-23T09:13:45;94773.25;;;11.96;100.00
35989;BME280;22064;42.672;23.282;2023-03-23T09:16:11;94767.91;;;12.08;100.00
35989;BME280;22064;42.672;23.282;2023-03-23T09:18:37;94775.38;;;12.26;100.00
35989;BME280;22064;42.672;23.282;2023-03-23T09:21:03;94766.94;;;12.51;100.00
35989;BME280;22064;42.672;23.282;2023-03-23T09:23:30;94766.88;;;12.78;100.00
35989;BME280;22064;42.672;23.282;2023-03-23T09:25:57;94759.88;;;12.84;100.00
35989;BME280;22064;42.672;23.282;2023-03-23T09:28:22;94766.16;;;12.88;100.00
35989;BME280;22064;42.672;23.282;2023-03-23T09:30:48;94758.94;;;13.05;97.42
35989;BME280;22064;42.672;23.282;2023-03-23T09:33:14;94756.63;;;13.19;97.46
35989;BME280;22064;42.672;23.282;2023-03-23T09:35:43;94753.25;;;13.18;87.49
35989;BME280;22064;42.672;23.282;2023-03-23T09:38:10;94755.97;;;13.39;89.06
35989;BME280;22064;42.672;23.282;2023-03-23T09:40:54;94752.59;;;13.44;79.82
35989;BME280;22064;42.672;23.282;2023-03-23T09:45:58;94751.75;;;13.33;83.83
35989;BME280;22064;42.672;23.282;2023-03-23T09:53:46;94748.69;;;13.56;82.28
35989;BME280;22064;42.672;23.282;2023-03-23T09:56:16;94747.97;;;13.81;79.04
35989;BME280;22064;42.672;23.282;2023-03-23T09:58:57;94749.03;;;13.91;77.68
35989;BME280;22064;42.672;23.282;2023-03-23T10:01:40;94735.97;;;14.11;74.41
35989;BME280;22064;42.672;23.282;2023-03-23T10:04:36;94732.28;;;14.17;72.28
35989;BME280;22064;42.672;23.282;2023-03-23T10:07:13;94739.91;;;14.14;70.54
35989;BME280;22064;42.672;23.282;2023-03-23T10:09:41;94735.19;;;14.10;71.38
35989;BME280;22064;42.672;23.282;2023-03-23T10:23:04;94734.16;;;14.22;71.20
35989;BME280;22064;42.672;23.282;2023-03-23T10:25:34;94734.94;;;14.12;71.59
35989;BME280;22064;42.672;23.282;2023-03-23T10:28:18;94735.19;;;14.16;71.17
35989;BME280;22064;42.672;23.282;2023-03-23T10:30:53;94736.78;;;14.12;69.68
35989;BME280;22064;42.672;23.282;2023-03-23T10:33:42;94721.06;;;14.27;65.90
35989;BME280;22064;42.672;23.282;2023-03-23T10:36:26;94718.44;;;14.37;66.49
35989;BME280;22064;42.672;23.282;2023-03-23T10:39:06;94725.75;;;14.40;67.77
35989;BME280;22064;42.672;23.282;2023-03-23T10:41:37;94710.81;;;14.36;65.90
35989;BME280;22064;42.672;23.282;2023-03-23T10:44:29;94722.63;;;14.23;65.76
35989;BME280;22064;42.672;23.282;2023-03-23T10:47:00;94731.00;;;14.40;66.00
35989;BME280;22064;42.672;23.282;2023-03-23T10:49:48;94717.66;;;14.57;65.16
35989;BME280;22064;42.672;23.282;2023-03-23T10:55:15;94726.56;;;14.61;61.35
35989;BME280;22064;42.672;23.282;2023-03-23T10:57:47;94720.25;;;14.72;60.34
35989;BME280;22064;42.672;23.282;2023-03-23T11:00:25;94713.72;;;14.24;62.77
35989;BME280;22064;42.672;23.282;2023-03-23T11:03:00;94720.53;;;14.35;63.88
35989;BME280;22064;42.672;23.282;2023-03-23T11:05:40;94706.91;;;14.53;64.12
35989;BME280;22064;42.672;23.282;2023-03-23T11:08:15;94718.41;;;14.83;63.58
35989;BME280;22064;42.672;23.282;2023-03-23T11:10:49;94713.13;;;14.88;60.71
35989;BME280;22064;42.672;23.282;2023-03-23T11:13:17;94700.22;;;15.12;60.81
35989;BME280;22064;42.672;23.282;2023-03-23T11:15:46;94703.94;;;14.91;57.67
35989;BME280;22064;42.672;23.282;2023-03-23T11:18:18;94705.00;;;14.79;56.82
35989;BME280;22064;42.672;23.282;2023-03-23T11:20:45;94694.34;;;14.55;58.14
35989;BME280;22064;42.672;23.282;2023-03-23T11:28:31;94690.13;;;14.65;60.32
35989;BME280;22064;42.672;23.282;2023-03-23T11:30:59;94696.41;;;14.74;60.38
35989;BME280;22064;42.672;23.282;2023-03-23T11:33:47;94690.31;;;14.94;60.45
35989;BME280;22064;42.672;23.282;2023-03-23T11:36:14;94688.13;;;15.16;58.01
35989;BME280;22064;42.672;23.282;2023-03-23T11:38:43;94673.84;;;15.38;55.27
35989;BME280;22064;42.672;23.282;2023-03-23T11:41:18;94679.03;;;15.48;55.86
35989;BME280;22064;42.672;23.282;2023-03-23T11:43:46;94671.47;;;15.46;55.93
35989;BME280;22064;42.672;23.282;2023-03-23T11:49:09;94666.59;;;15.24;55.69
35989;BME280;22064;42.672;23.282;2023-03-23T11:51:51;94662.88;;;15.31;54.93
35989;BME280;22064;42.672;23.282;2023-03-23T11:54:30;94659.78;;;15.18;54.10
35989;BME280;22064;42.672;23.282;2023-03-23T11:56:58;94655.84;;;15.21;53.98
35989;BME280;22064;42.672;23.282;2023-03-23T11:59:29;94664.97;;;15.29;54.84
35989;BME280;22064;42.672;23.282;2023-03-23T12:07:54;94648.88;;;15.90;54.63
35989;BME280;22064;42.672;23.282;2023-03-23T12:10:34;94653.75;;;16.07;53.68
35989;BME280;22064;42.672;23.282;2023-03-23T12:23:42;94652.88;;;15.82;51.88
35989;BME280;22064;42.672;23.282;2023-03-23T12:26:18;94650.00;;;16.13;51.88
35989;BME280;22064;42.672;23.282;2023-03-23T12:29:12;94649.47;;;16.45;50.36
35989;BME280;22064;42.672;23.282;2023-03-23T12:34:54;94642.47;;;16.89;48.57
35989;BME280;22064;42.672;23.282;2023-03-23T12:40:29;94634.50;;;16.94;48.32
35989;BME280;22064;42.672;23.282;2023-03-23T12:42:59;94632.75;;;17.08;48.10
35989;BME280;22064;42.672;23.282;2023-03-23T12:46:06;94622.06;;;17.42;47.22
35989;BME280;22064;42.672;23.282;2023-03-23T12:48:40;94629.72;;;17.39;47.78
35989;BME280;22064;42.672;23.282;2023-03-23T12:51:17;94628.88;;;17.43;47.45
35989;BME280;22064;42.672;23.282;2023-03-23T12:54:10;94624.69;;;17.42;47.11
35989;BME280;22064;42.672;23.282;2023-03-23T12:56:46;94625.19;;;17.63;46.59
35989;BME280;22064;42.672;23.282;2023-03-23T12:59:41;94623.13;;;17.79;45.86
35989;BME280;22064;42.672;23.282;2023-03-23T13:02:25;94616.63;;;17.71;45.53
35989;BME280;22064;42.672;23.282;2023-03-23T13:05:02;94614.41;;;17.78;45.39
35989;BME280;22064;42.672;23.282;2023-03-23T13:07:35;94623.19;;;17.36;44.77
35989;BME280;22064;42.672;23.282;2023-03-23T13:10:23;94616.00;;;17.80;44.22
35989;BME280;22064;42.672;23.282;2023-03-23T13:12:51;94614.03;;;18.04;44.05
35989;BME280;22064;42.672;23.282;2023-03-23T13:15:35;94609.69;;;18.27;43.83
35989;BME280;22064;42.672;23.282;2023-03-23T13:20:55;94611.38;;;18.51;43.84
35989;BME280;22064;42.672;23.282;2023-03-23T13:23:26;94603.06;;;18.43;43.59
35989;BME280;22064;42.672;23.282;2023-03-23T13:28:28;94602.25;;;18.76;42.67
35989;BME280;22064;42.672;23.282;2023-03-23T13:30:56;94609.06;;;18.90;42.37
35989;BME280;22064;42.672;23.282;2023-03-23T13:33:23;94600.44;;;18.71;42.69
35989;BME280;22064;42.672;23.282;2023-03-23T13:35:50;94601.81;;;18.68;42.66
35989;BME280;22064;42.672;23.282;2023-03-23T13:38:25;94595.56;;;18.92;42.58
35989;BME280;22064;42.672;23.282;2023-03-23T13:40:53;94589.88;;;19.49;41.39
35989;BME280;22064;42.672;23.282;2023-03-23T13:43:32;94595.97;;;19.72;40.71
35989;BME280;22064;42.672;23.282;2023-03-23T13:49:02;94589.94;;;19.57;41.19
35989;BME280;22064;42.672;23.282;2023-03-23T13:51:35;94583.81;;;19.84;40.64
35989;BME280;22064;42.672;23.282;2023-03-23T13:54:15;94582.31;;;19.70;40.15
35989;BME280;22064;42.672;23.282;2023-03-23T13:56:58;94587.63;;;20.01;40.39
35989;BME280;22064;42.672;23.282;2023-03-23T14:01:54;94582.31;;;21.03;37.81
35989;BME280;22064;42.672;23.282;2023-03-23T14:04:23;94580.03;;;21.36;37.29
35989;BME280;22064;42.672;23.282;2023-03-23T14:06:56;94577.81;;;21.30;37.17
35989;BME280;22064;42.672;23.282;2023-03-23T14:09:33;94576.28;;;21.46;37.38
35989;BME280;22064;42.672;23.282;2023-03-23T14:12:02;94577.50;;;21.83;36.79
35989;BME280;22064;42.672;23.282;2023-03-23T14:14:42;94574.97;;;22.22;35.72
35989;BME280;22064;42.672;23.282;2023-03-23T14:17:15;94554.38;;;22.95;34.18
35989;BME280;22064;42.672;23.282;2023-03-23T14:19:46;94563.72;;;22.93;34.46
35989;BME280;22064;42.672;23.282;2023-03-23T14:22:19;94558.81;;;23.33;33.88
35989;BME280;22064;42.672;23.282;2023-03-23T14:24:45;94567.03;;;23.82;33.12
35989;BME280;22064;42.672;23.282;2023-03-23T14:27:17;94570.47;;;23.20;34.23
35989;BME280;22064;42.672;23.282;2023-03-23T14:29:44;94554.84;;;23.39;33.75
35989;BME280;22064;42.672;23.282;2023-03-23T14:32:17;94573.16;;;23.95;33.14
35989;BME280;22064;42.672;23.282;2023-03-23T14:34:47;94563.13;;;24.83;32.04
35989;BME280;22064;42.672;23.282;2023-03-23T14:37:13;94563.53;;;25.62;30.88
35989;BME280;22064;42.672;23.282;2023-03-23T14:39:44;94553.25;;;24.96;31.15
35989;BME280;22064;42.672;23.282;2023-03-23T14:42:13;94558.31;;;25.25;30.59
35989;BME280;22064;42.672;23.282;2023-03-23T14:44:46;94571.38;;;26.43;29.46